sensor_id;sensor_type;location;lat;lon;timestamp;P1;durP1;ratioP1;P2;durP2;ratioP2
55455;SDS011;63021;52.836;6.376;2024-01-27T00:00:21;21.92;;;4.22;;
55455;SDS011;63021;52.836;6.376;2024-01-27T00:02:47;20.17;;;3.58;;
55455;SDS011;63021;52.836;6.376;2024-01-27T00:05:12;19.23;;;3.67;;
55455;SDS011;63021;52.836;6.376;2024-01-27T00:07:38;17.73;;;3.38;;
55455;SDS011;63021;52.836;6.376;2024-01-27T00:10:04;22.15;;;3.95;;
55455;SDS011;63021;52.836;6.376;2024-01-27T00:12:29;16.45;;;4.78;;
55455;SDS011;63021;52.836;6.376;2024-01-27T00:14:55;23.75;;;4.25;;
55455;SDS011;63021;52.836;6.376;2024-01-27T00:17:20;22.45;;;4.03;;
55455;SDS011;63021;52.836;6.376;2024-01-27T00:19:49;19.50;;;4.22;;
55455;SDS011;63021;52.836;6.376;2024-01-27T00:22:15;22.25;;;4.75;;
55455;SDS011;63021;52.836;6.376;2024-01-27T00:24:42;25.83;;;4.93;;
55455;SDS011;63021;52.836;6.376;2024-01-27T00:27:07;27.20;;;4.05;;
55455;SDS011;63021;52.836;6.376;2024-01-27T00:29:33;27.73;;;5.30;;
55455;SDS011;63021;52.836;6.376;2024-01-27T00:31:58;29.00;;;4.05;;
55455;SDS011;63021;52.836;6.376;2024-01-27T00:34:23;17.58;;;3.55;;
55455;SDS011;63021;52.836;6.376;2024-01-27T00:36:50;32.28;;;6.32;;
55455;SDS011;63021;52.836;6.376;2024-01-27T00:39:15;12.57;;;4.10;;
55455;SDS011;63021;52.836;6.376;2024-01-27T00:41:41;26.70;;;4.40;;
55455;SDS011;63021;52.836;6.376;2024-01-27T00:44:07;21.90;;;3.58;;
55455;SDS011;63021;52.836;6.376;2024-01-27T00:46:33;23.23;;;3.70;;
55455;SDS011;63021;52.836;6.376;2024-01-27T00:48:58;23.17;;;4.43;;
55455;SDS011;63021;52.836;6.376;2024-01-27T00:51:24;23.63;;;4.75;;
55455;SDS011;63021;52.836;6.376;2024-01-27T00:53:49;17.45;;;3.72;;
55455;SDS011;63021;52.836;6.376;2024-01-27T00:56:14;20.10;;;3.60;;
55455;SDS011;63021;52.836;6.376;2024-01-27T00:58:40;24.25;;;4.70;;
55455;SDS011;63021;52.836;6.376;2024-01-27T01:01:06;21.33;;;4.65;;
55455;SDS011;63021;52.836;6.376;2024-01-27T01:03:32;19.67;;;3.40;;
55455;SDS011;63021;52.836;6.376;2024-01-27T01:05:57;18.30;;;3.90;;
55455;SDS011;63021;52.836;6.376;2024-01-27T01:08:22;22.92;;;3.72;;
55455;SDS011;63021;52.836;6.376;2024-01-27T01:10:48;22.95;;;4.22;;
55455;SDS011;63021;52.836;6.376;2024-01-27T01:13:13;26.20;;;5.25;;
55455;SDS011;63021;52.836;6.376;2024-01-27T01:15:39;19.88;;;4.07;;
55455;SDS011;63021;52.836;6.376;2024-01-27T01:18:04;17.35;;;4.53;;
55455;SDS011;63021;52.836;6.376;2024-01-27T01:20:30;19.17;;;3.72;;
55455;SDS011;63021;52.836;6.376;2024-01-27T01:22:57;17.98;;;4.78;;
55455;SDS011;63021;52.836;6.376;2024-01-27T01:25:23;10.70;;;3.35;;
55455;SDS011;63021;52.836;6.376;2024-01-27T01:27:48;14.52;;;3.38;;
55455;SDS011;63021;52.836;6.376;2024-01-27T01:30:15;17.27;;;4.75;;
55455;SDS011;63021;52.836;6.376;2024-01-27T01:32:41;12.95;;;2.95;;
55455;SDS011;63021;52.836;6.376;2024-01-27T01:35:07;18.35;;;2.95;;
55455;SDS011;63021;52.836;6.376;2024-01-27T01:37:34;17.20;;;3.08;;
55455;SDS011;63021;52.836;6.376;2024-01-27T01:40:00;16.45;;;3.67;;
55455;SDS011;63021;52.836;6.376;2024-01-27T01:42:25;12.05;;;3.05;;
55455;SDS011;63021;52.836;6.376;2024-01-27T01:44:51;13.85;;;3.00;;
55455;SDS011;63021;52.836;6.376;2024-01-27T01:47:17;13.15;;;3.58;;
55455;SDS011;63021;52.836;6.376;2024-01-27T01:49:43;20.08;;;4.38;;
55455;SDS011;63021;52.836;6.376;2024-01-27T01:52:08;24.80;;;3.92;;
55455;SDS011;63021;52.836;6.376;2024-01-27T01:54:35;17.08;;;4.55;;
55455;SDS011;63021;52.836;6.376;2024-01-27T01:57:01;22.17;;;4.28;;
55455;SDS011;63021;52.836;6.376;2024-01-27T01:59:28;18.42;;;3.65;;
55455;SDS011;63021;52.836;6.376;2024-01-27T02:01:53;18.13;;;3.58;;
55455;SDS011;63021;52.836;6.376;2024-01-27T02:04:19;21.55;;;3.33;;
55455;SDS011;63021;52.836;6.376;2024-01-27T02:06:44;19.88;;;4.10;;
55455;SDS011;63021;52.836;6.376;2024-01-27T02:09:09;15.93;;;3.50;;
55455;SDS011;63021;52.836;6.376;2024-01-27T02:11:35;19.15;;;4.90;;
55455;SDS011;63021;52.836;6.376;2024-01-27T02:14:00;16.67;;;2.75;;
55455;SDS011;63021;52.836;6.376;2024-01-27T02:16:26;28.48;;;4.40;;
55455;SDS011;63021;52.836;6.376;2024-01-27T02:18:51;16.90;;;3.03;;
55455;SDS011;63021;52.836;6.376;2024-01-27T02:21:17;21.08;;;3.45;;
55455;SDS011;63021;52.836;6.376;2024-01-27T02:23:42;21.73;;;3.92;;
55455;SDS011;63021;52.836;6.376;2024-01-27T02:26:07;20.10;;;4.70;;
55455;SDS011;63021;52.836;6.376;2024-01-27T02:28:33;13.75;;;3.47;;
55455;SDS011;63021;52.836;6.376;2024-01-27T02:31:00;23.05;;;4.90;;
55455;SDS011;63021;52.836;6.376;2024-01-27T02:33:25;26.45;;;4.80;;
55455;SDS011;63021;52.836;6.376;2024-01-27T02:35:51;15.75;;;3.17;;
55455;SDS011;63021;52.836;6.376;2024-01-27T02:38:16;20.65;;;4.65;;
55455;SDS011;63021;52.836;6.376;2024-01-27T02:40:42;22.17;;;3.80;;
55455;SDS011;63021;52.836;6.376;2024-01-27T02:43:07;21.35;;;3.97;;
55455;SDS011;63021;52.836;6.376;2024-01-27T02:45:32;18.45;;;4.10;;
55455;SDS011;63021;52.836;6.376;2024-01-27T02:47:58;20.92;;;3.63;;
55455;SDS011;63021;52.836;6.376;2024-01-27T02:50:23;28.92;;;4.30;;
55455;SDS011;63021;52.836;6.376;2024-01-27T02:52:49;14.95;;;3.90;;
55455;SDS011;63021;52.836;6.376;2024-01-27T02:55:14;26.92;;;3.17;;
55455;SDS011;63021;52.836;6.376;2024-01-27T02:57:42;12.38;;;3.83;;
55455;SDS011;63021;52.836;6.376;2024-01-27T03:00:09;18.67;;;3.95;;
55455;SDS011;63021;52.836;6.376;2024-01-27T03:02:35;22.65;;;3.28;;
55455;SDS011;63021;52.836;6.376;2024-01-27T03:05:01;16.88;;;2.97;;
55455;SDS011;63021;52.836;6.376;2024-01-27T03:07:26;24.50;;;4.82;;
55455;SDS011;63021;52.836;6.376;2024-01-27T03:09:52;21.25;;;4.57;;
55455;SDS011;63021;52.836;6.376;2024-01-27T03:12:17;18.38;;;3.72;;
55455;SDS011;63021;52.836;6.376;2024-01-27T03:14:43;15.90;;;4.28;;
55455;SDS011;63021;52.836;6.376;2024-01-27T03:17:09;16.88;;;4.30;;
55455;SDS011;63021;52.836;6.376;2024-01-27T03:19:35;22.17;;;3.15;;
55455;SDS011;63021;52.836;6.376;2024-01-27T03:22:00;19.60;;;3.90;;
55455;SDS011;63021;52.836;6.376;2024-01-27T03:24:25;14.80;;;3.20;;
55455;SDS011;63021;52.836;6.376;2024-01-27T03:26:51;19.90;;;3.78;;
55455;SDS011;63021;52.836;6.376;2024-01-27T03:29:16;13.07;;;3.22;;
55455;SDS011;63021;52.836;6.376;2024-01-27T03:31:42;18.98;;;3.58;;
55455;SDS011;63021;52.836;6.376;2024-01-27T03:34:07;23.85;;;5.25;;
55455;SDS011;63021;52.836;6.376;2024-01-27T03:36:33;18.00;;;3.38;;
55455;SDS011;63021;52.836;6.376;2024-01-27T03:38:58;12.32;;;3.35;;
55455;SDS011;63021;52.836;6.376;2024-01-27T03:41:24;19.95;;;4.13;;
55455;SDS011;63021;52.836;6.376;2024-01-27T03:43:49;14.30;;;3.85;;
55455;SDS011;63021;52.836;6.376;2024-01-27T03:46:15;19.45;;;3.75;;
55455;SDS011;63021;52.836;6.376;2024-01-27T03:48:41;24.15;;;4.80;;
55455;SDS011;63021;52.836;6.376;2024-01-27T03:51:07;18.65;;;3.88;;
55455;SDS011;63021;52.836;6.376;2024-01-27T03:53:32;18.83;;;3.78;;
55455;SDS011;63021;52.836;6.376;2024-01-27T03:55:58;27.67;;;5.90;;
55455;SDS011;63021;52.836;6.376;2024-01-27T03:58:24;12.30;;;3.90;;
55455;SDS011;63021;52.836;6.376;2024-01-27T04:00:50;19.58;;;4.93;;
55455;SDS011;63021;52.836;6.376;2024-01-27T04:03:16;18.77;;;5.07;;
55455;SDS011;63021;52.836;6.376;2024-01-27T04:05:42;19.48;;;4.25;;
55455;SDS011;63021;52.836;6.376;2024-01-27T04:08:08;20.92;;;4.05;;
55455;SDS011;63021;52.836;6.376;2024-01-27T04:10:33;18.08;;;3.63;;
55455;SDS011;63021;52.836;6.376;2024-01-27T04:12:59;17.13;;;5.35;;
55455;SDS011;63021;52.836;6.376;2024-01-27T04:15:25;26.02;;;4.47;;
55455;SDS011;63021;52.836;6.376;2024-01-27T04:17:50;19.58;;;4.30;;
55455;SDS011;63021;52.836;6.376;2024-01-27T04:20:16;23.02;;;4.45;;
55455;SDS011;63021;52.836;6.376;2024-01-27T04:22:41;17.60;;;4.05;;
55455;SDS011;63021;52.836;6.376;2024-01-27T04:25:07;18.35;;;4.00;;
55455;SDS011;63021;52.836;6.376;2024-01-27T04:27:36;18.50;;;5.38;;
55455;SDS011;63021;52.836;6.376;2024-01-27T04:30:04;14.30;;;3.67;;
55455;SDS011;63021;52.836;6.376;2024-01-27T04:32:31;20.05;;;4.18;;
55455;SDS011;63021;52.836;6.376;2024-01-27T04:34:56;19.17;;;5.05;;
55455;SDS011;63021;52.836;6.376;2024-01-27T04:37:22;22.17;;;4.80;;
55455;SDS011;63021;52.836;6.376;2024-01-27T04:39:47;15.57;;;4.30;;
55455;SDS011;63021;52.836;6.376;2024-01-27T04:42:12;20.70;;;3.80;;
55455;SDS011;63021;52.836;6.376;2024-01-27T04:44:39;20.90;;;6.35;;
55455;SDS011;63021;52.836;6.376;2024-01-27T04:47:06;22.20;;;3.55;;
55455;SDS011;63021;52.836;6.376;2024-01-27T04:49:31;21.48;;;5.28;;
55455;SDS011;63021;52.836;6.376;2024-01-27T04:51:57;22.85;;;3.50;;
55455;SDS011;63021;52.836;6.376;2024-01-27T04:54:22;20.55;;;4.28;;
55455;SDS011;63021;52.836;6.376;2024-01-27T04:56:48;21.17;;;4.30;;
55455;SDS011;63021;52.836;6.376;2024-01-27T04:59:13;15.00;;;3.42;;
55455;SDS011;63021;52.836;6.376;2024-01-27T05:01:38;18.10;;;4.15;;
55455;SDS011;63021;52.836;6.376;2024-01-27T05:04:04;21.02;;;3.55;;
55455;SDS011;63021;52.836;6.376;2024-01-27T05:06:29;20.45;;;3.17;;
55455;SDS011;63021;52.836;6.376;2024-01-27T05:08:55;20.88;;;4.20;;
55455;SDS011;63021;52.836;6.376;2024-01-27T05:11:30;18.10;;;6.00;;
55455;SDS011;63021;52.836;6.376;2024-01-27T05:13:56;18.73;;;3.40;;
55455;SDS011;63021;52.836;6.376;2024-01-27T05:16:22;22.65;;;4.10;;
55455;SDS011;63021;52.836;6.376;2024-01-27T05:18:47;14.23;;;3.25;;
55455;SDS011;63021;52.836;6.376;2024-01-27T05:21:13;18.35;;;3.95;;
55455;SDS011;63021;52.836;6.376;2024-01-27T05:23:39;24.90;;;4.03;;
55455;SDS011;63021;52.836;6.376;2024-01-27T05:26:07;27.05;;;4.15;;
55455;SDS011;63021;52.836;6.376;2024-01-27T05:28:33;20.85;;;3.53;;
55455;SDS011;63021;52.836;6.376;2024-01-27T05:30:59;25.83;;;4.38;;
55455;SDS011;63021;52.836;6.376;2024-01-27T05:33:24;19.27;;;3.92;;
55455;SDS011;63021;52.836;6.376;2024-01-27T05:35:49;17.98;;;3.55;;
55455;SDS011;63021;52.836;6.376;2024-01-27T05:38:15;12.95;;;3.25;;
55455;SDS011;63021;52.836;6.376;2024-01-27T05:40:41;16.15;;;3.33;;
55455;SDS011;63021;52.836;6.376;2024-01-27T05:43:07;20.13;;;4.40;;
55455;SDS011;63021;52.836;6.376;2024-01-27T05:45:32;17.95;;;4.95;;
55455;SDS011;63021;52.836;6.376;2024-01-27T05:47:57;17.83;;;3.53;;
55455;SDS011;63021;52.836;6.376;2024-01-27T05:50:23;19.13;;;3.42;;
55455;SDS011;63021;52.836;6.376;2024-01-27T05:52:48;18.38;;;3.92;;
55455;SDS011;63021;52.836;6.376;2024-01-27T05:55:13;26.17;;;5.07;;
55455;SDS011;63021;52.836;6.376;2024-01-27T05:57:41;17.02;;;3.75;;
55455;SDS011;63021;52.836;6.376;2024-01-27T06:00:07;23.95;;;5.50;;
55455;SDS011;63021;52.836;6.376;2024-01-27T06:02:34;18.80;;;5.45;;
55455;SDS011;63021;52.836;6.376;2024-01-27T06:04:59;13.73;;;4.15;;
55455;SDS011;63021;52.836;6.376;2024-01-27T06:07:25;20.60;;;5.32;;
55455;SDS011;63021;52.836;6.376;2024-01-27T06:09:50;18.75;;;6.32;;
55455;SDS011;63021;52.836;6.376;2024-01-27T06:12:16;24.55;;;4.63;;
55455;SDS011;63021;52.836;6.376;2024-01-27T06:14:41;24.33;;;4.68;;
55455;SDS011;63021;52.836;6.376;2024-01-27T06:17:07;21.13;;;4.78;;
55455;SDS011;63021;52.836;6.376;2024-01-27T06:19:32;16.65;;;7.40;;
55455;SDS011;63021;52.836;6.376;2024-01-27T06:21:57;18.80;;;7.13;;
55455;SDS011;63021;52.836;6.376;2024-01-27T06:24:23;26.23;;;5.95;;
55455;SDS011;63021;52.836;6.376;2024-01-27T06:26:49;19.35;;;6.05;;
55455;SDS011;63021;52.836;6.376;2024-01-27T06:29:14;25.52;;;7.22;;
55455;SDS011;63021;52.836;6.376;2024-01-27T06:31:40;22.65;;;7.60;;
55455;SDS011;63021;52.836;6.376;2024-01-27T06:34:05;26.80;;;6.68;;
55455;SDS011;63021;52.836;6.376;2024-01-27T06:36:31;20.13;;;6.30;;
55455;SDS011;63021;52.836;6.376;2024-01-27T06:38:57;24.27;;;7.43;;
55455;SDS011;63021;52.836;6.376;2024-01-27T06:41:23;20.95;;;7.32;;
55455;SDS011;63021;52.836;6.376;2024-01-27T06:43:48;21.85;;;7.88;;
55455;SDS011;63021;52.836;6.376;2024-01-27T06:46:13;24.15;;;7.45;;
55455;SDS011;63021;52.836;6.376;2024-01-27T06:48:39;17.08;;;8.07;;
55455;SDS011;63021;52.836;6.376;2024-01-27T06:51:05;26.02;;;7.80;;
55455;SDS011;63021;52.836;6.376;2024-01-27T06:53:30;21.65;;;7.57;;
55455;SDS011;63021;52.836;6.376;2024-01-27T06:55:55;23.63;;;7.80;;
55455;SDS011;63021;52.836;6.376;2024-01-27T06:58:21;24.60;;;9.05;;
55455;SDS011;63021;52.836;6.376;2024-01-27T07:00:46;22.08;;;8.40;;
55455;SDS011;63021;52.836;6.376;2024-01-27T07:03:12;20.80;;;8.63;;
55455;SDS011;63021;52.836;6.376;2024-01-27T07:05:37;22.50;;;8.15;;
55455;SDS011;63021;52.836;6.376;2024-01-27T07:08:08;26.45;;;8.15;;
55455;SDS011;63021;52.836;6.376;2024-01-27T07:10:34;31.13;;;8.02;;
55455;SDS011;63021;52.836;6.376;2024-01-27T07:13:00;30.63;;;9.38;;
55455;SDS011;63021;52.836;6.376;2024-01-27T07:15:26;32.33;;;9.63;;
55455;SDS011;63021;52.836;6.376;2024-01-27T07:17:52;20.17;;;7.90;;
55455;SDS011;63021;52.836;6.376;2024-01-27T07:20:18;19.67;;;8.75;;
55455;SDS011;63021;52.836;6.376;2024-01-27T07:22:44;17.42;;;7.78;;
55455;SDS011;63021;52.836;6.376;2024-01-27T07:25:09;27.08;;;8.55;;
55455;SDS011;63021;52.836;6.376;2024-01-27T07:27:35;28.38;;;9.05;;
55455;SDS011;63021;52.836;6.376;2024-01-27T07:30:01;17.75;;;8.75;;
55455;SDS011;63021;52.836;6.376;2024-01-27T07:32:28;21.73;;;9.15;;
55455;SDS011;63021;52.836;6.376;2024-01-27T07:34:53;22.25;;;9.32;;
55455;SDS011;63021;52.836;6.376;2024-01-27T07:37:19;20.77;;;8.73;;
55455;SDS011;63021;52.836;6.376;2024-01-27T07:39:45;24.70;;;8.38;;
55455;SDS011;63021;52.836;6.376;2024-01-27T07:42:11;23.58;;;7.88;;
55455;SDS011;63021;52.836;6.376;2024-01-27T07:44:37;18.80;;;8.43;;
55455;SDS011;63021;52.836;6.376;2024-01-27T07:47:02;22.38;;;8.75;;
55455;SDS011;63021;52.836;6.376;2024-01-27T07:49:28;25.25;;;9.50;;
55455;SDS011;63021;52.836;6.376;2024-01-27T07:51:53;15.68;;;8.45;;
55455;SDS011;63021;52.836;6.376;2024-01-27T07:54:20;28.05;;;11.57;;
55455;SDS011;63021;52.836;6.376;2024-01-27T07:56:45;28.58;;;9.77;;
55455;SDS011;63021;52.836;6.376;2024-01-27T07:59:11;27.77;;;10.98;;
55455;SDS011;63021;52.836;6.376;2024-01-27T08:01:39;28.92;;;9.75;;
55455;SDS011;63021;52.836;6.376;2024-01-27T08:04:05;25.98;;;9.48;;
55455;SDS011;63021;52.836;6.376;2024-01-27T08:06:30;29.85;;;10.23;;
55455;SDS011;63021;52.836;6.376;2024-01-27T08:08:56;28.17;;;10.93;;
55455;SDS011;63021;52.836;6.376;2024-01-27T08:11:21;31.58;;;11.95;;
55455;SDS011;63021;52.836;6.376;2024-01-27T08:13:47;22.25;;;9.88;;
55455;SDS011;63021;52.836;6.376;2024-01-27T08:16:12;22.52;;;8.65;;
55455;SDS011;63021;52.836;6.376;2024-01-27T08:18:39;39.25;;;9.65;;
55455;SDS011;63021;52.836;6.376;2024-01-27T08:21:07;29.58;;;11.48;;
55455;SDS011;63021;52.836;6.376;2024-01-27T08:23:34;27.40;;;9.18;;
55455;SDS011;63021;52.836;6.376;2024-01-27T08:28:33;21.73;;;8.82;;
55455;SDS011;63021;52.836;6.376;2024-01-27T08:31:04;32.65;;;11.00;;
55455;SDS011;63021;52.836;6.376;2024-01-27T08:33:29;34.92;;;9.95;;
55455;SDS011;63021;52.836;6.376;2024-01-27T08:35:56;27.17;;;9.57;;
55455;SDS011;63021;52.836;6.376;2024-01-27T08:38:21;32.95;;;10.55;;
55455;SDS011;63021;52.836;6.376;2024-01-27T08:40:47;33.42;;;10.48;;
55455;SDS011;63021;52.836;6.376;2024-01-27T08:43:12;31.35;;;10.82;;
55455;SDS011;63021;52.836;6.376;2024-01-27T08:45:37;26.58;;;10.25;;
55455;SDS011;63021;52.836;6.376;2024-01-27T08:48:07;21.88;;;9.88;;
55455;SDS011;63021;52.836;6.376;2024-01-27T08:50:32;23.38;;;11.07;;
55455;SDS011;63021;52.836;6.376;2024-01-27T08:52:58;37.60;;;9.15;;
55455;SDS011;63021;52.836;6.376;2024-01-27T08:55:24;29.33;;;8.75;;
55455;SDS011;63021;52.836;6.376;2024-01-27T08:57:52;26.50;;;8.73;;
55455;SDS011;63021;52.836;6.376;2024-01-27T09:00:18;22.63;;;9.57;;
55455;SDS011;63021;52.836;6.376;2024-01-27T09:02:44;22.15;;;8.82;;
55455;SDS011;63021;52.836;6.376;2024-01-27T09:05:10;27.23;;;9.43;;
55455;SDS011;63021;52.836;6.376;2024-01-27T09:07:35;20.98;;;9.55;;
55455;SDS011;63021;52.836;6.376;2024-01-27T09:10:01;20.70;;;9.57;;
55455;SDS011;63021;52.836;6.376;2024-01-27T09:12:27;20.65;;;9.15;;
55455;SDS011;63021;52.836;6.376;2024-01-27T09:14:53;27.60;;;11.80;;
55455;SDS011;63021;52.836;6.376;2024-01-27T09:17:21;25.42;;;10.07;;
55455;SDS011;63021;52.836;6.376;2024-01-27T09:19:47;23.05;;;9.95;;
55455;SDS011;63021;52.836;6.376;2024-01-27T09:22:12;35.85;;;11.43;;
55455;SDS011;63021;52.836;6.376;2024-01-27T09:24:38;33.28;;;10.35;;
55455;SDS011;63021;52.836;6.376;2024-01-27T09:27:04;19.23;;;9.48;;
55455;SDS011;63021;52.836;6.376;2024-01-27T09:29:30;25.15;;;10.00;;
55455;SDS011;63021;52.836;6.376;2024-01-27T09:31:55;28.55;;;11.00;;
55455;SDS011;63021;52.836;6.376;2024-01-27T09:34:21;24.20;;;10.05;;
55455;SDS011;63021;52.836;6.376;2024-01-27T09:36:46;26.70;;;9.90;;
55455;SDS011;63021;52.836;6.376;2024-01-27T09:39:11;24.58;;;10.75;;
55455;SDS011;63021;52.836;6.376;2024-01-27T09:41:37;29.42;;;10.95;;
55455;SDS011;63021;52.836;6.376;2024-01-27T09:44:03;27.27;;;11.30;;
55455;SDS011;63021;52.836;6.376;2024-01-27T09:46:30;23.52;;;9.95;;
55455;SDS011;63021;52.836;6.376;2024-01-27T09:48:56;29.10;;;10.25;;
55455;SDS011;63021;52.836;6.376;2024-01-27T09:51:22;26.67;;;9.60;;
55455;SDS011;63021;52.836;6.376;2024-01-27T09:53:48;26.95;;;9.65;;
55455;SDS011;63021;52.836;6.376;2024-01-27T09:56:16;20.05;;;9.60;;
55455;SDS011;63021;52.836;6.376;2024-01-27T09:58:46;25.25;;;9.32;;
55455;SDS011;63021;52.836;6.376;2024-01-27T10:01:15;26.92;;;11.93;;
55455;SDS011;63021;52.836;6.376;2024-01-27T10:03:42;29.50;;;10.35;;
55455;SDS011;63021;52.836;6.376;2024-01-27T10:06:08;28.05;;;10.90;;
55455;SDS011;63021;52.836;6.376;2024-01-27T10:08:34;27.08;;;11.07;;
55455;SDS011;63021;52.836;6.376;2024-01-27T10:11:00;24.48;;;9.15;;
55455;SDS011;63021;52.836;6.376;2024-01-27T10:13:32;25.65;;;9.55;;
55455;SDS011;63021;52.836;6.376;2024-01-27T10:18:33;32.35;;;9.75;;
55455;SDS011;63021;52.836;6.376;2024-01-27T10:20:59;17.42;;;8.02;;
55455;SDS011;63021;52.836;6.376;2024-01-27T10:23:26;27.92;;;10.43;;
55455;SDS011;63021;52.836;6.376;2024-01-27T10:25:52;29.38;;;8.80;;
55455;SDS011;63021;52.836;6.376;2024-01-27T10:28:18;25.05;;;8.45;;
55455;SDS011;63021;52.836;6.376;2024-01-27T10:30:48;23.05;;;8.93;;
55455;SDS011;63021;52.836;6.376;2024-01-27T10:33:13;28.40;;;10.32;;
55455;SDS011;63021;52.836;6.376;2024-01-27T10:35:40;26.25;;;9.20;;
55455;SDS011;63021;52.836;6.376;2024-01-27T10:38:08;23.13;;;8.38;;
55455;SDS011;63021;52.836;6.376;2024-01-27T10:40:37;27.48;;;8.88;;
55455;SDS011;63021;52.836;6.376;2024-01-27T10:45:39;19.55;;;8.82;;
55455;SDS011;63021;52.836;6.376;2024-01-27T10:48:07;26.58;;;7.95;;
55455;SDS011;63021;52.836;6.376;2024-01-27T10:50:36;28.58;;;9.52;;
55455;SDS011;63021;52.836;6.376;2024-01-27T10:53:08;23.48;;;8.63;;
55455;SDS011;63021;52.836;6.376;2024-01-27T10:55:38;29.13;;;8.65;;
55455;SDS011;63021;52.836;6.376;2024-01-27T10:58:07;26.13;;;9.07;;
55455;SDS011;63021;52.836;6.376;2024-01-27T11:00:33;22.08;;;8.93;;
55455;SDS011;63021;52.836;6.376;2024-01-27T11:03:01;25.80;;;8.70;;
55455;SDS011;63021;52.836;6.376;2024-01-27T11:05:27;29.73;;;9.50;;
55455;SDS011;63021;52.836;6.376;2024-01-27T11:07:54;23.23;;;8.75;;
55455;SDS011;63021;52.836;6.376;2024-01-27T11:10:20;19.42;;;8.15;;
55455;SDS011;63021;52.836;6.376;2024-01-27T11:12:48;22.67;;;7.78;;
55455;SDS011;63021;52.836;6.376;2024-01-27T11:15:15;24.98;;;7.75;;
55455;SDS011;63021;52.836;6.376;2024-01-27T11:17:42;25.65;;;8.23;;
55455;SDS011;63021;52.836;6.376;2024-01-27T11:20:08;20.88;;;7.22;;
55455;SDS011;63021;52.836;6.376;2024-01-27T11:22:36;23.95;;;7.20;;
55455;SDS011;63021;52.836;6.376;2024-01-27T11:27:38;22.17;;;6.93;;
55455;SDS011;63021;52.836;6.376;2024-01-27T11:30:04;28.77;;;7.35;;
55455;SDS011;63021;52.836;6.376;2024-01-27T11:32:31;24.63;;;8.65;;
55455;SDS011;63021;52.836;6.376;2024-01-27T11:34:56;35.70;;;10.18;;
55455;SDS011;63021;52.836;6.376;2024-01-27T11:37:22;37.22;;;10.20;;
55455;SDS011;63021;52.836;6.376;2024-01-27T11:39:50;20.88;;;8.85;;
55455;SDS011;63021;52.836;6.376;2024-01-27T11:42:17;25.83;;;9.15;;
55455;SDS011;63021;52.836;6.376;2024-01-27T11:44:43;22.95;;;7.93;;
55455;SDS011;63021;52.836;6.376;2024-01-27T11:47:28;16.58;;;6.65;;
55455;SDS011;63021;52.836;6.376;2024-01-27T11:49:55;23.85;;;6.90;;
55455;SDS011;63021;52.836;6.376;2024-01-27T11:52:31;25.40;;;6.85;;
55455;SDS011;63021;52.836;6.376;2024-01-27T11:54:59;25.85;;;7.78;;
55455;SDS011;63021;52.836;6.376;2024-01-27T11:57:26;23.45;;;8.50;;
55455;SDS011;63021;52.836;6.376;2024-01-27T11:59:52;23.20;;;8.05;;
55455;SDS011;63021;52.836;6.376;2024-01-27T12:02:19;27.00;;;9.02;;
55455;SDS011;63021;52.836;6.376;2024-01-27T12:04:45;16.35;;;7.10;;
55455;SDS011;63021;52.836;6.376;2024-01-27T12:07:12;26.33;;;7.05;;
55455;SDS011;63021;52.836;6.376;2024-01-27T12:09:38;21.45;;;6.55;;
55455;SDS011;63021;52.836;6.376;2024-01-27T12:12:04;24.08;;;7.70;;
55455;SDS011;63021;52.836;6.376;2024-01-27T12:17:31;25.27;;;6.40;;
55455;SDS011;63021;52.836;6.376;2024-01-27T12:19:57;20.00;;;8.13;;
55455;SDS011;63021;52.836;6.376;2024-01-27T12:22:23;28.08;;;7.30;;
55455;SDS011;63021;52.836;6.376;2024-01-27T12:24:55;21.38;;;7.63;;
55455;SDS011;63021;52.836;6.376;2024-01-27T12:27:32;30.52;;;7.88;;
55455;SDS011;63021;52.836;6.376;2024-01-27T12:30:00;19.83;;;8.20;;
55455;SDS011;63021;52.836;6.376;2024-01-27T12:32:25;28.08;;;7.05;;
55455;SDS011;63021;52.836;6.376;2024-01-27T12:34:52;20.10;;;6.80;;
55455;SDS011;63021;52.836;6.376;2024-01-27T12:37:17;23.70;;;8.40;;
55455;SDS011;63021;52.836;6.376;2024-01-27T12:39:46;29.90;;;10.15;;
55455;SDS011;63021;52.836;6.376;2024-01-27T12:42:12;22.10;;;8.30;;
55455;SDS011;63021;52.836;6.376;2024-01-27T12:44:38;19.33;;;6.47;;
55455;SDS011;63021;52.836;6.376;2024-01-27T12:47:05;26.27;;;7.55;;
55455;SDS011;63021;52.836;6.376;2024-01-27T12:49:31;26.60;;;6.57;;
55455;SDS011;63021;52.836;6.376;2024-01-27T12:51:56;15.60;;;5.68;;
55455;SDS011;63021;52.836;6.376;2024-01-27T12:54:22;16.85;;;5.90;;
55455;SDS011;63021;52.836;6.376;2024-01-27T12:56:48;22.65;;;7.50;;
55455;SDS011;63021;52.836;6.376;2024-01-27T12:59:13;25.90;;;7.13;;
55455;SDS011;63021;52.836;6.376;2024-01-27T13:01:39;24.25;;;5.90;;
55455;SDS011;63021;52.836;6.376;2024-01-27T13:04:05;22.98;;;5.80;;
55455;SDS011;63021;52.836;6.376;2024-01-27T13:06:31;22.17;;;5.93;;
55455;SDS011;63021;52.836;6.376;2024-01-27T13:08:59;24.52;;;6.10;;
55455;SDS011;63021;52.836;6.376;2024-01-27T13:11:24;20.25;;;6.70;;
55455;SDS011;63021;52.836;6.376;2024-01-27T13:13:50;22.95;;;6.00;;
55455;SDS011;63021;52.836;6.376;2024-01-27T13:16:16;21.23;;;4.80;;
55455;SDS011;63021;52.836;6.376;2024-01-27T13:18:41;23.35;;;7.50;;
55455;SDS011;63021;52.836;6.376;2024-01-27T13:21:11;19.17;;;5.93;;
55455;SDS011;63021;52.836;6.376;2024-01-27T13:23:37;28.20;;;6.05;;
55455;SDS011;63021;52.836;6.376;2024-01-27T13:26:02;19.52;;;7.32;;
55455;SDS011;63021;52.836;6.376;2024-01-27T13:28:28;21.45;;;6.97;;
55455;SDS011;63021;52.836;6.376;2024-01-27T13:30:54;23.27;;;5.88;;
55455;SDS011;63021;52.836;6.376;2024-01-27T13:33:21;20.65;;;6.03;;
55455;SDS011;63021;52.836;6.376;2024-01-27T13:35:47;25.05;;;7.03;;
55455;SDS011;63021;52.836;6.376;2024-01-27T13:38:13;25.77;;;6.32;;
55455;SDS011;63021;52.836;6.376;2024-01-27T13:40:38;18.08;;;5.80;;
55455;SDS011;63021;52.836;6.376;2024-01-27T13:43:04;19.95;;;7.57;;
55455;SDS011;63021;52.836;6.376;2024-01-27T13:45:30;21.05;;;6.93;;
55455;SDS011;63021;52.836;6.376;2024-01-27T13:47:56;25.70;;;8.15;;
55455;SDS011;63021;52.836;6.376;2024-01-27T13:50:22;15.80;;;6.22;;
55455;SDS011;63021;52.836;6.376;2024-01-27T13:52:50;22.50;;;6.97;;
55455;SDS011;63021;52.836;6.376;2024-01-27T13:55:15;23.60;;;8.15;;
55455;SDS011;63021;52.836;6.376;2024-01-27T13:57:41;26.95;;;7.97;;
55455;SDS011;63021;52.836;6.376;2024-01-27T14:00:07;22.65;;;7.55;;
55455;SDS011;63021;52.836;6.376;2024-01-27T14:02:35;20.00;;;5.78;;
55455;SDS011;63021;52.836;6.376;2024-01-27T14:05:01;20.98;;;5.63;;
55455;SDS011;63021;52.836;6.376;2024-01-27T14:07:26;26.30;;;7.13;;
55455;SDS011;63021;52.836;6.376;2024-01-27T14:09:52;25.60;;;8.30;;
55455;SDS011;63021;52.836;6.376;2024-01-27T14:12:17;18.20;;;7.18;;
55455;SDS011;63021;52.836;6.376;2024-01-27T14:14:45;21.63;;;6.88;;
55455;SDS011;63021;52.836;6.376;2024-01-27T14:17:11;16.75;;;6.00;;
55455;SDS011;63021;52.836;6.376;2024-01-27T14:19:37;21.10;;;6.43;;
55455;SDS011;63021;52.836;6.376;2024-01-27T14:22:03;21.58;;;8.27;;
55455;SDS011;63021;52.836;6.376;2024-01-27T14:24:28;26.88;;;7.38;;
55455;SDS011;63021;52.836;6.376;2024-01-27T14:26:53;23.90;;;8.18;;
55455;SDS011;63021;52.836;6.376;2024-01-27T14:29:19;21.45;;;8.43;;
55455;SDS011;63021;52.836;6.376;2024-01-27T14:31:45;30.83;;;10.10;;
55455;SDS011;63021;52.836;6.376;2024-01-27T14:34:11;27.38;;;10.00;;
55455;SDS011;63021;52.836;6.376;2024-01-27T14:36:37;35.20;;;13.02;;
55455;SDS011;63021;52.836;6.376;2024-01-27T14:39:03;35.10;;;12.18;;